createdAt,value
2022-07-31T00:00:02.705Z,97893.38
2022-07-31T00:02:04.086Z,97895.13
2022-07-31T00:04:05.512Z,97887.47
2022-07-31T00:06:06.824Z,97892.56
2022-07-31T00:08:09.972Z,97886.63
2022-07-31T00:10:11.375Z,97886.69
2022-07-31T00:12:12.730Z,97888.34
2022-07-31T00:14:14.176Z,97891.78
2022-07-31T00:16:15.474Z,97893.50
2022-07-31T00:18:18.720Z,97892.66
2022-07-31T00:20:20.250Z,97893.50
2022-07-31T00:22:21.552Z,97856.53
2022-07-31T00:24:22.947Z,97895.13
2022-07-31T00:26:24.280Z,97888.34
2022-07-31T00:28:25.654Z,97888.41
2022-07-31T00:30:26.960Z,97886.50
2022-07-31T00:32:28.265Z,97885.41
2022-07-31T00:34:29.610Z,97881.09
2022-07-31T00:36:30.917Z,97875.19
2022-07-31T00:38:32.226Z,97865.00
2022-07-31T00:40:33.532Z,97871.00
2022-07-31T00:42:34.911Z,97868.44
2022-07-31T00:44:36.323Z,97869.31
2022-07-31T00:46:40.235Z,97869.28
2022-07-31T00:48:41.845Z,97859.06
2022-07-31T00:50:43.160Z,97868.44
2022-07-31T00:52:45.370Z,97866.72
2022-07-31T00:54:46.722Z,97863.31
2022-07-31T00:56:48.024Z,97865.03
2022-07-31T00:58:49.373Z,97867.59
2022-07-31T01:00:50.762Z,97865.00
2022-07-31T01:02:52.120Z,97871.84
2022-07-31T01:04:53.489Z,97863.31
2022-07-31T01:06:54.784Z,97874.50
2022-07-31T01:08:56.091Z,97868.47
2022-07-31T01:10:57.403Z,97862.47
2022-07-31T01:12:58.736Z,97865.91
2022-07-31T01:15:00.051Z,97865.91
2022-07-31T01:17:01.737Z,97866.81
2022-07-31T01:19:03.263Z,97870.31
2022-07-31T01:21:04.570Z,97870.31
2022-07-31T01:23:05.882Z,97864.34
2022-07-31T01:25:07.266Z,97865.19
2022-07-31T01:27:08.563Z,97861.00
2022-07-31T01:29:10.109Z,97863.50
2022-07-31T01:31:26.031Z,97862.66
2022-07-31T01:33:28.663Z,97858.44
2022-07-31T01:35:29.975Z,97860.16
2022-07-31T01:37:31.283Z,97867.84
2022-07-31T01:39:33.826Z,97861.94
2022-07-31T01:41:35.502Z,97868.69
2022-07-31T01:43:38.021Z,97867.03
2022-07-31T01:45:39.372Z,97864.44
2022-07-31T01:47:40.728Z,97856.75
2022-07-31T01:49:42.042Z,97863.63
2022-07-31T01:51:44.206Z,97851.78
2022-07-31T01:53:45.587Z,97858.69
2022-07-31T01:56:03.746Z,97857.84
2022-07-31T01:58:05.606Z,97856.19
2022-07-31T02:00:06.948Z,97857.06
2022-07-31T02:02:28.231Z,97857.91
2022-07-31T02:04:29.970Z,97857.13
2022-07-31T02:06:31.286Z,97849.47
2022-07-31T02:08:32.582Z,97847.78
2022-07-31T02:10:33.923Z,97848.63
2022-07-31T02:12:35.218Z,97846.09
2022-07-31T02:14:36.583Z,97846.94
2022-07-31T02:16:38.160Z,97846.94
2022-07-31T02:18:39.499Z,97841.78
2022-07-31T02:20:40.879Z,97843.53
2022-07-31T02:22:42.235Z,97841.81
2022-07-31T02:24:43.569Z,97835.91
2022-07-31T02:26:44.875Z,97843.63
2022-07-31T02:28:46.186Z,97831.66
2022-07-31T02:30:47.479Z,97830.00
2022-07-31T02:32:48.830Z,97824.91
2022-07-31T02:34:50.134Z,97830.88
2022-07-31T02:36:52.610Z,97827.47
2022-07-31T02:38:54.998Z,97827.38
2022-07-31T02:40:56.665Z,97824.88
2022-07-31T02:42:58.011Z,97825.81
2022-07-31T02:44:59.337Z,97831.75
2022-07-31T02:47:02.469Z,97822.44
2022-07-31T02:49:03.867Z,97821.66
2022-07-31T02:51:05.349Z,97819.97
2022-07-31T02:53:06.737Z,97814.84
2022-07-31T02:55:08.276Z,97820.88
2022-07-31T02:57:09.595Z,97825.06
2022-07-31T02:59:10.947Z,97817.31
2022-07-31T03:01:14.398Z,97812.22
2022-07-31T03:03:16.206Z,97816.41
2022-07-31T03:05:17.597Z,97817.25
2022-07-31T03:07:18.967Z,97813.81
2022-07-31T03:09:20.347Z,97812.13
2022-07-31T03:11:21.664Z,97816.41
2022-07-31T03:13:23.056Z,97813.91
2022-07-31T03:15:24.470Z,97817.25
2022-07-31T03:17:38.063Z,97813.06
2022-07-31T03:19:42.036Z,97813.91
2022-07-31T03:21:43.371Z,97802.72
2022-07-31T03:23:44.670Z,97815.47
2022-07-31T03:25:45.972Z,97816.41
2022-07-31T03:27:55.839Z,97812.13
2022-07-31T03:29:57.920Z,97815.59
2022-07-31T03:31:59.229Z,97817.31
2022-07-31T03:34:00.535Z,97810.56
2022-07-31T03:36:02.074Z,97818.22
2022-07-31T03:38:38.634Z,97811.44
2022-07-31T03:40:25.710Z,97818.25
2022-07-31T03:42:27.016Z,97811.44
2022-07-31T03:44:28.346Z,97814.84
2022-07-31T03:46:29.647Z,97823.28
2022-07-31T03:48:31.431Z,97810.34
2022-07-31T03:50:32.738Z,97816.28
2022-07-31T03:52:34.042Z,97819.63
2022-07-31T03:54:35.363Z,97817.91
2022-07-31T03:56:36.683Z,97814.22
2022-07-31T03:58:38.582Z,97817.22
2022-07-31T04:00:40.119Z,97820.03
2022-07-31T04:02:41.721Z,97813.22
2022-07-31T04:04:43.047Z,97815.75
2022-07-31T04:06:44.352Z,97818.25
2022-07-31T04:08:45.655Z,97822.59
2022-07-31T04:10:46.954Z,97819.19
2022-07-31T04:12:48.306Z,97819.25
2022-07-31T04:14:51.238Z,97815.00
2022-07-31T04:16:52.582Z,97818.41
2022-07-31T04:18:53.890Z,97814.06
2022-07-31T04:20:55.205Z,97820.81
2022-07-31T04:22:56.562Z,97812.28
2022-07-31T04:24:59.331Z,97814.75
2022-07-31T04:27:01.473Z,97809.66
2022-07-31T04:29:02.787Z,97818.09
2022-07-31T04:31:04.133Z,97803.41
2022-07-31T04:33:05.430Z,97803.41
2022-07-31T04:35:06.748Z,97811.06
2022-07-31T04:37:08.201Z,97811.09
2022-07-31T04:39:09.535Z,97809.44
2022-07-31T04:41:10.839Z,97810.31
2022-07-31T04:43:12.776Z,97807.66
2022-07-31T04:45:14.123Z,97811.88
2022-07-31T04:47:15.482Z,97814.50
2022-07-31T04:49:16.873Z,97820.50
2022-07-31T04:51:18.692Z,97816.28
2022-07-31T04:53:20.007Z,97816.22
2022-07-31T04:55:21.587Z,97817.16
2022-07-31T04:57:23.371Z,97818.03
2022-07-31T04:59:24.680Z,97809.53
2022-07-31T05:01:46.063Z,97807.06
2022-07-31T05:03:47.474Z,97803.66
2022-07-31T05:05:50.032Z,97812.19
2022-07-31T05:07:51.370Z,97818.16
2022-07-31T05:09:52.666Z,97816.41
2022-07-31T05:11:53.979Z,97818.94
2022-07-31T05:13:55.434Z,97818.94
2022-07-31T05:15:56.864Z,97819.78
2022-07-31T05:17:58.210Z,97823.25
2022-07-31T05:19:59.544Z,97820.72
2022-07-31T05:22:03.915Z,97820.78
2022-07-31T05:24:05.429Z,97825.91
2022-07-31T05:26:06.792Z,97827.66
2022-07-31T05:28:09.694Z,97827.63
2022-07-31T05:30:11.235Z,97828.50
2022-07-31T05:32:12.894Z,97837.06
2022-07-31T05:34:14.443Z,97832.78
2022-07-31T05:36:15.794Z,97835.22
2022-07-31T05:38:17.105Z,97840.28
2022-07-31T05:40:18.418Z,97834.28
2022-07-31T05:42:19.746Z,97833.44
2022-07-31T05:44:21.071Z,97830.97
2022-07-31T05:46:22.423Z,97834.31
2022-07-31T05:48:23.783Z,97835.94
2022-07-31T05:50:25.105Z,97836.00
2022-07-31T05:52:26.415Z,97841.13
2022-07-31T05:54:27.783Z,97841.25
2022-07-31T05:56:29.130Z,97840.41
2022-07-31T05:58:30.431Z,97837.06
2022-07-31T06:00:31.807Z,97843.00
2022-07-31T06:02:33.732Z,97831.97
2022-07-31T06:04:35.158Z,97843.00
2022-07-31T06:06:36.464Z,97841.28
2022-07-31T06:08:37.812Z,97839.56
2022-07-31T06:10:39.144Z,97850.66
2022-07-31T06:12:40.490Z,97848.88
2022-07-31T06:14:41.791Z,97851.41
2022-07-31T06:16:43.463Z,97853.03
2022-07-31T06:18:44.808Z,97847.84
2022-07-31T06:20:46.150Z,97851.91
2022-07-31T06:22:47.442Z,97847.38
2022-07-31T06:24:48.747Z,97850.44
2022-07-31T06:26:50.056Z,97851.97
2022-07-31T06:28:51.351Z,97849.28
2022-07-31T06:30:52.720Z,97851.88
2022-07-31T06:32:54.031Z,97850.97
2022-07-31T06:34:55.336Z,97844.06
2022-07-31T06:36:56.648Z,97852.50
2022-07-31T06:38:57.974Z,97851.16
2022-07-31T06:40:59.310Z,97849.41
2022-07-31T06:43:04.998Z,97847.91
2022-07-31T06:45:08.028Z,97847.38
2022-07-31T06:47:13.840Z,97849.25
2022-07-31T06:49:17.436Z,97845.16
2022-07-31T06:51:34.226Z,97841.03
2022-07-31T06:53:35.560Z,97843.63
2022-07-31T06:55:36.935Z,97838.56
2022-07-31T06:57:45.576Z,97847.16
2022-07-31T06:59:46.916Z,97848.84
2022-07-31T07:01:48.489Z,97841.97
2022-07-31T07:03:49.851Z,97841.16
2022-07-31T07:05:51.151Z,97838.63
2022-07-31T07:07:53.007Z,97843.72
2022-07-31T07:09:54.316Z,97832.75
2022-07-31T07:11:55.643Z,97836.13
2022-07-31T07:13:56.956Z,97847.16
2022-07-31T07:15:58.264Z,97848.88
2022-07-31T07:17:59.576Z,97843.84
2022-07-31T07:20:00.919Z,97842.22
2022-07-31T07:22:02.779Z,97847.41
2022-07-31T07:24:04.236Z,97846.56
2022-07-31T07:26:05.542Z,97861.06
2022-07-31T07:28:06.844Z,97846.63
2022-07-31T07:30:08.178Z,97852.63
2022-07-31T07:32:10.138Z,97849.97
2022-07-31T07:34:11.447Z,97845.63
2022-07-31T07:36:23.180Z,97870.28
2022-07-31T07:38:24.929Z,97850.59
2022-07-31T07:40:28.407Z,97848.03
2022-07-31T07:42:29.725Z,97835.25
2022-07-31T07:44:31.033Z,97849.66
2022-07-31T07:46:32.835Z,97847.94
2022-07-31T07:48:34.187Z,97855.59
2022-07-31T07:50:35.503Z,97836.00
2022-07-31T07:52:39.020Z,97841.91
2022-07-31T07:54:43.526Z,97840.19
2022-07-31T07:56:45.391Z,97835.00
2022-07-31T07:58:49.030Z,97841.66
2022-07-31T08:00:50.434Z,97830.88
2022-07-31T08:03:02.934Z,97833.53
2022-07-31T08:05:13.118Z,97832.59
2022-07-31T08:07:14.412Z,97826.75
2022-07-31T08:09:15.772Z,97831.09
2022-07-31T08:11:17.947Z,97825.19
2022-07-31T08:13:19.639Z,97823.69
2022-07-31T08:15:21.002Z,97832.41
2022-07-31T08:17:22.330Z,97820.56
2022-07-31T08:19:23.657Z,97826.34
2022-07-31T08:21:24.956Z,97828.97
2022-07-31T08:23:26.403Z,97825.00
2022-07-31T08:25:31.954Z,97827.28
2022-07-31T08:27:39.911Z,97822.88
2022-07-31T08:29:42.852Z,97823.78
2022-07-31T08:31:49.600Z,97828.44
2022-07-31T08:33:51.059Z,97817.91
2022-07-31T08:35:52.383Z,97829.97
2022-07-31T08:38:03.163Z,97824.69
2022-07-31T08:40:05.791Z,97807.00
2022-07-31T08:42:07.148Z,97814.91
2022-07-31T08:44:08.483Z,97817.56
2022-07-31T08:46:09.959Z,97810.22
2022-07-31T08:48:11.312Z,97808.44
2022-07-31T08:50:12.703Z,97810.03
2022-07-31T08:52:15.009Z,97803.19
2022-07-31T08:54:16.326Z,97810.81
2022-07-31T08:56:17.643Z,97811.56
2022-07-31T08:58:18.955Z,97811.34
2022-07-31T09:00:22.702Z,97814.88
2022-07-31T09:02:24.046Z,97805.44
2022-07-31T09:04:25.381Z,97808.72
2022-07-31T09:06:26.714Z,97798.44
2022-07-31T09:08:28.143Z,97801.09
2022-07-31T09:10:29.550Z,97800.13
2022-07-31T09:12:32.433Z,97790.59
2022-07-31T09:14:35.571Z,97796.78
2022-07-31T09:16:36.870Z,97794.53
2022-07-31T09:18:38.177Z,97793.81
2022-07-31T09:20:39.519Z,97788.19
2022-07-31T09:22:40.922Z,97791.06
2022-07-31T09:24:42.220Z,97793.94
2022-07-31T09:26:44.463Z,97786.75
2022-07-31T09:28:45.894Z,97785.88
2022-07-31T09:30:56.241Z,97793.19
2022-07-31T09:32:58.306Z,97792.66
2022-07-31T09:34:59.612Z,97786.00
2022-07-31T09:37:01.051Z,97789.25
2022-07-31T09:39:04.279Z,97785.19
2022-07-31T09:41:55.529Z,97778.56
2022-07-31T09:43:31.395Z,97776.59
2022-07-31T09:45:33.154Z,97780.06
2022-07-31T09:47:34.509Z,97773.03
2022-07-31T09:49:35.922Z,97762.94
2022-07-31T09:51:37.342Z,97791.22
2022-07-31T09:53:43.249Z,97776.78
2022-07-31T09:55:44.915Z,97764.09
2022-07-31T09:57:50.146Z,97768.63
2022-07-31T09:59:51.587Z,97766.09
2022-07-31T10:01:52.953Z,97764.50
2022-07-31T10:03:54.287Z,97756.38
2022-07-31T10:05:55.642Z,97762.94
2022-07-31T10:08:00.486Z,97764.19
2022-07-31T10:10:01.848Z,97761.28
2022-07-31T10:12:03.199Z,97764.88
2022-07-31T10:14:04.493Z,97627.56
2022-07-31T10:16:05.793Z,97777.81
2022-07-31T10:18:08.590Z,97756.06
2022-07-31T10:20:10.439Z,97760.47
2022-07-31T10:22:11.792Z,97753.41
2022-07-31T10:24:13.523Z,97759.53
2022-07-31T10:26:15.300Z,97763.50
2022-07-31T10:28:16.679Z,97754.50
2022-07-31T10:30:18.052Z,97746.00
2022-07-31T10:32:19.360Z,97755.38
2022-07-31T10:34:20.710Z,97748.63
2022-07-31T10:36:22.424Z,97740.84
2022-07-31T10:38:23.729Z,97735.81
2022-07-31T10:40:25.131Z,97741.03
2022-07-31T10:42:27.046Z,97744.63
2022-07-31T10:44:28.362Z,97745.41
2022-07-31T10:46:29.888Z,97746.25
2022-07-31T10:48:31.451Z,97750.44
2022-07-31T10:50:32.753Z,97742.84
2022-07-31T10:52:34.580Z,97743.13
2022-07-31T10:54:35.941Z,97751.22
2022-07-31T10:56:37.263Z,97739.34
2022-07-31T10:58:38.615Z,97744.47
2022-07-31T11:00:40.465Z,97747.06
2022-07-31T11:02:42.047Z,97733.75
2022-07-31T11:04:43.412Z,97732.91
2022-07-31T11:06:46.655Z,97725.50
2022-07-31T11:08:48.035Z,97774.59
2022-07-31T11:10:49.359Z,97738.69
2022-07-31T11:12:50.664Z,97736.75
2022-07-31T11:14:52.063Z,97732.53
2022-07-31T11:16:53.643Z,97735.78
2022-07-31T11:18:54.963Z,97737.69
2022-07-31T11:20:56.277Z,97729.00
2022-07-31T11:22:57.961Z,97721.59
2022-07-31T11:24:59.355Z,97722.00
2022-07-31T11:27:00.666Z,97722.09
2022-07-31T11:29:58.941Z,97718.72
2022-07-31T11:31:23.302Z,97718.28
2022-07-31T11:33:24.652Z,97723.69
2022-07-31T11:35:25.994Z,97720.41
2022-07-31T11:37:30.584Z,97719.56
2022-07-31T11:39:51.289Z,97709.41
2022-07-31T11:41:55.547Z,97717.31
2022-07-31T11:43:57.580Z,97719.75
2022-07-31T11:45:59.157Z,97707.03
2022-07-31T11:48:12.687Z,97708.75
2022-07-31T11:50:15.712Z,97712.25
2022-07-31T11:52:31.027Z,97709.69
2022-07-31T11:54:38.055Z,97707.16
2022-07-31T11:56:40.079Z,97715.72
2022-07-31T11:58:41.431Z,97707.38
2022-07-31T12:00:42.731Z,97711.69
2022-07-31T12:02:44.144Z,97706.97
2022-07-31T12:04:45.483Z,97710.72
2022-07-31T12:06:46.860Z,97704.31
2022-07-31T12:08:49.909Z,97701.88
2022-07-31T12:10:51.220Z,97693.94
2022-07-31T12:12:52.656Z,97696.00
2022-07-31T12:14:53.995Z,97693.06
2022-07-31T12:16:55.301Z,97691.00
2022-07-31T12:18:59.151Z,97688.19
2022-07-31T12:21:00.526Z,97689.66
2022-07-31T12:23:01.824Z,97687.72
2022-07-31T12:25:06.135Z,97690.03
2022-07-31T12:27:10.242Z,97700.56
2022-07-31T12:29:14.462Z,97694.34
2022-07-31T12:31:15.822Z,97699.94
2022-07-31T12:33:17.666Z,97700.69
2022-07-31T12:35:19.019Z,97692.28
2022-07-31T12:37:21.865Z,97682.94
2022-07-31T12:39:23.174Z,97692.94
2022-07-31T12:41:25.146Z,97691.56
2022-07-31T12:43:26.450Z,97684.91
2022-07-31T12:45:27.760Z,97694.41
2022-07-31T12:47:30.100Z,97685.41
2022-07-31T12:49:31.581Z,97693.97
2022-07-31T12:51:45.156Z,97540.34
2022-07-31T12:53:47.231Z,97686.47
2022-07-31T12:55:48.813Z,97682.50
2022-07-31T12:57:50.911Z,97687.56
2022-07-31T12:59:53.897Z,97680.03
2022-07-31T13:01:55.255Z,97683.09
2022-07-31T13:03:58.309Z,97687.34
2022-07-31T13:05:59.702Z,97682.50
2022-07-31T13:08:01.057Z,97686.00
2022-07-31T13:10:20.421Z,97691.88
2022-07-31T13:12:23.587Z,97685.13
2022-07-31T13:14:24.986Z,97682.69
2022-07-31T13:16:26.355Z,97680.31
2022-07-31T13:18:29.915Z,97678.75
2022-07-31T13:20:31.347Z,97678.06
2022-07-31T13:22:33.135Z,97677.25
2022-07-31T13:24:35.671Z,97679.91
2022-07-31T13:26:37.844Z,97680.78
2022-07-31T13:28:39.215Z,97676.56
2022-07-31T13:30:40.560Z,97676.72
2022-07-31T13:32:41.947Z,97675.09
2022-07-31T13:34:43.259Z,97677.69
2022-07-31T13:36:44.619Z,97674.31
2022-07-31T13:38:45.923Z,97680.38
2022-07-31T13:41:05.798Z,97685.63
2022-07-31T13:43:07.310Z,97684.81
2022-07-31T13:45:08.969Z,97685.78
2022-07-31T13:47:10.352Z,97687.47
2022-07-31T13:49:11.839Z,97679.00
2022-07-31T13:51:13.208Z,97678.34
2022-07-31T13:53:14.574Z,97675.78
2022-07-31T13:55:15.914Z,97670.75
2022-07-31T13:57:17.232Z,97678.44
2022-07-31T13:59:18.610Z,97674.19
2022-07-31T14:01:19.958Z,97672.56
2022-07-31T14:03:21.449Z,97676.06
2022-07-31T14:05:23.511Z,97677.78
2022-07-31T14:07:48.120Z,97678.97
2022-07-31T14:09:55.152Z,97678.44
2022-07-31T14:11:58.521Z,97675.31
2022-07-31T14:13:59.842Z,97681.44
2022-07-31T14:16:01.168Z,97675.78
2022-07-31T14:18:07.872Z,97674.16
2022-07-31T14:20:09.570Z,97668.06
2022-07-31T14:22:11.140Z,97674.31
2022-07-31T14:24:12.814Z,97674.25
2022-07-31T14:26:14.184Z,97677.00
2022-07-31T14:28:15.538Z,97670.06
2022-07-31T14:30:19.986Z,97671.78
2022-07-31T14:32:22.328Z,97669.31
2022-07-31T14:34:23.799Z,97664.03
2022-07-31T14:36:36.936Z,97661.88
2022-07-31T14:38:38.449Z,97661.69
2022-07-31T14:40:39.774Z,97656.41
2022-07-31T14:42:41.709Z,97648.44
2022-07-31T14:44:43.149Z,97653.59
2022-07-31T14:46:44.496Z,97651.34
2022-07-31T14:48:45.828Z,97654.09
2022-07-31T14:50:47.180Z,97650.72
2022-07-31T14:52:48.735Z,97646.53
2022-07-31T14:54:50.039Z,97652.47
2022-07-31T14:57:01.268Z,97653.53
2022-07-31T14:59:03.105Z,97653.63
2022-07-31T15:01:04.480Z,97649.34
2022-07-31T15:03:05.855Z,97648.41
2022-07-31T15:06:40.805Z,97647.56
2022-07-31T15:07:38.516Z,97645.59
2022-07-31T15:09:42.418Z,97648.16
2022-07-31T15:12:00.085Z,97647.81
2022-07-31T15:14:02.191Z,97650.44
2022-07-31T15:16:04.373Z,97649.59
2022-07-31T15:18:05.724Z,97650.69
2022-07-31T15:20:30.113Z,97648.59
2022-07-31T15:22:53.342Z,97650.31
2022-07-31T15:24:54.709Z,97653.06
2022-07-31T15:26:56.003Z,97643.66
2022-07-31T15:28:57.410Z,97634.94
2022-07-31T15:31:01.165Z,97568.31
2022-07-31T15:33:02.679Z,97641.00
2022-07-31T15:35:04.016Z,97648.59
2022-07-31T15:37:05.689Z,97641.75
2022-07-31T15:39:07.343Z,97637.63
2022-07-31T15:41:08.655Z,97640.47
2022-07-31T15:43:09.962Z,97632.59
2022-07-31T15:45:11.357Z,97631.28
2022-07-31T15:47:13.115Z,97635.34
2022-07-31T15:49:14.499Z,97625.47
2022-07-31T15:51:16.419Z,97624.31
2022-07-31T15:53:17.731Z,97625.66
2022-07-31T15:55:19.081Z,97622.88
2022-07-31T15:57:20.734Z,97620.94
2022-07-31T15:59:22.091Z,97612.50
2022-07-31T16:01:23.449Z,97608.72
2022-07-31T16:03:24.814Z,97611.53
2022-07-31T16:05:46.102Z,97614.13
2022-07-31T16:08:30.768Z,97614.47
2022-07-31T16:10:19.035Z,97613.63
2022-07-31T16:12:20.379Z,97602.28
2022-07-31T16:14:21.696Z,97598.66
2022-07-31T16:16:25.227Z,97608.13
2022-07-31T16:18:26.572Z,97603.22
2022-07-31T16:20:27.875Z,97602.25
2022-07-31T16:22:29.347Z,97604.00
2022-07-31T16:24:30.653Z,97606.47
2022-07-31T16:26:33.449Z,97613.28
2022-07-31T16:28:34.783Z,97603.72
2022-07-31T16:30:36.089Z,97608.78
2022-07-31T16:32:37.388Z,97603.88
2022-07-31T16:34:39.724Z,97607.84
2022-07-31T16:36:41.278Z,97609.66
2022-07-31T16:38:45.831Z,97605.31
2022-07-31T16:40:53.687Z,97596.13
2022-07-31T16:42:55.991Z,97606.28
2022-07-31T16:44:58.423Z,97594.66
2022-07-31T16:46:59.856Z,97595.75
2022-07-31T16:49:01.277Z,97596.81
2022-07-31T16:51:22.555Z,97596.44
2022-07-31T16:54:10.617Z,97600.59
2022-07-31T16:55:59.620Z,97595.16
2022-07-31T16:58:02.477Z,97601.69
2022-07-31T17:00:03.843Z,97600.31
2022-07-31T17:02:05.196Z,97598.31
2022-07-31T17:04:06.537Z,97599.50
2022-07-31T17:06:07.923Z,97602.38
2022-07-31T17:08:09.355Z,97587.22
2022-07-31T17:10:10.687Z,97592.69
2022-07-31T17:12:12.099Z,97593.09
2022-07-31T17:14:13.447Z,97596.38
2022-07-31T17:16:14.859Z,97599.34
2022-07-31T17:18:16.214Z,97601.47
2022-07-31T17:20:23.486Z,97603.03
2022-07-31T17:22:24.868Z,97601.59
2022-07-31T17:24:26.345Z,97605.25
2022-07-31T17:26:29.161Z,97613.94
2022-07-31T17:28:30.531Z,97600.44
2022-07-31T17:30:32.614Z,97601.41
2022-07-31T17:32:34.580Z,97597.31
2022-07-31T17:34:35.996Z,97600.03
2022-07-31T17:36:37.347Z,97597.59
2022-07-31T17:38:38.799Z,97602.00
2022-07-31T17:40:44.236Z,97604.66
2022-07-31T17:42:45.735Z,97603.94
2022-07-31T17:44:49.813Z,97607.44
2022-07-31T17:46:54.691Z,97605.94
2022-07-31T17:48:56.075Z,97608.78
2022-07-31T17:50:57.512Z,97603.84
2022-07-31T17:52:58.827Z,97609.94
2022-07-31T17:55:01.363Z,97605.78
2022-07-31T17:57:02.721Z,97613.66
2022-07-31T17:59:05.372Z,97620.75
2022-07-31T18:03:08.746Z,97608.19
2022-07-31T18:05:10.069Z,97610.78
2022-07-31T18:07:11.439Z,97611.81
2022-07-31T18:09:12.755Z,97613.72
2022-07-31T18:11:14.131Z,97623.25
2022-07-31T18:13:15.445Z,97614.03
2022-07-31T18:15:16.799Z,97615.75
2022-07-31T18:17:19.410Z,97612.34
2022-07-31T18:19:21.821Z,97620.03
2022-07-31T18:21:23.151Z,97615.06
2022-07-31T18:23:29.403Z,97616.72
2022-07-31T18:25:33.600Z,97616.03
2022-07-31T18:27:35.027Z,97616.16
2022-07-31T18:29:36.433Z,97626.53
2022-07-31T18:31:37.829Z,97621.50
2022-07-31T18:33:42.619Z,97625.09
2022-07-31T18:35:43.986Z,97620.00
2022-07-31T18:37:45.296Z,97620.91
2022-07-31T18:39:47.910Z,97619.22
2022-07-31T18:41:50.747Z,97461.28
2022-07-31T18:43:52.050Z,97616.91
2022-07-31T18:45:53.368Z,97617.88
2022-07-31T18:47:54.844Z,97625.56
2022-07-31T18:50:58.697Z,97622.88
2022-07-31T18:52:17.656Z,97628.16
2022-07-31T18:54:19.923Z,97617.75
2022-07-31T18:56:21.262Z,97628.94
2022-07-31T18:58:22.557Z,97633.47
2022-07-31T19:00:23.952Z,97626.72
2022-07-31T19:02:28.087Z,97628.41
2022-07-31T19:04:29.564Z,97623.59
2022-07-31T19:06:30.865Z,97635.63
2022-07-31T19:08:32.618Z,97631.63
2022-07-31T19:10:33.945Z,97635.78
2022-07-31T19:12:35.352Z,97639.03
2022-07-31T19:14:36.897Z,97635.72
2022-07-31T19:16:38.204Z,97632.66
2022-07-31T19:18:40.392Z,97636.28
2022-07-31T19:20:58.812Z,97642.56
2022-07-31T19:23:03.010Z,97508.91
2022-07-31T19:25:04.310Z,97637.06
2022-07-31T19:27:05.699Z,97634.06
2022-07-31T19:29:07.156Z,97637.19
2022-07-31T19:31:08.488Z,97640.69
2022-07-31T19:33:09.795Z,97642.72
2022-07-31T19:35:11.920Z,97645.44
2022-07-31T19:37:13.337Z,97643.44
2022-07-31T19:39:14.674Z,97639.63
2022-07-31T19:41:16.041Z,97638.25
2022-07-31T19:43:17.370Z,97644.72
2022-07-31T19:45:21.766Z,97640.25
2022-07-31T19:47:23.120Z,97643.34
2022-07-31T19:49:24.604Z,97642.59
2022-07-31T19:51:26.063Z,97648.59
2022-07-31T19:53:27.390Z,97646.28
2022-07-31T19:55:29.194Z,97640.84
2022-07-31T19:57:38.867Z,97641.75
2022-07-31T19:59:40.478Z,97642.31
2022-07-31T20:01:41.810Z,97638.28
2022-07-31T20:03:43.208Z,97633.72
2022-07-31T20:05:44.570Z,97639.78
2022-07-31T20:07:45.910Z,97635.75
2022-07-31T20:09:47.998Z,97634.22
2022-07-31T20:11:49.299Z,97635.97
2022-07-31T20:13:50.667Z,97637.09
2022-07-31T20:15:53.163Z,97637.97
2022-07-31T20:17:54.610Z,97633.66
2022-07-31T20:20:15.041Z,97638.88
2022-07-31T20:22:17.378Z,97638.06
2022-07-31T20:24:18.765Z,97631.97
2022-07-31T20:26:20.074Z,97619.13
2022-07-31T20:28:21.447Z,97627.28
2022-07-31T20:30:25.035Z,97632.53
2022-07-31T20:32:26.343Z,97636.47
2022-07-31T20:34:27.720Z,97629.84
2022-07-31T20:36:29.068Z,97629.97
2022-07-31T20:38:30.366Z,97633.47
2022-07-31T20:40:31.716Z,97629.94
2022-07-31T20:42:33.058Z,97628.97
2022-07-31T20:44:34.370Z,97624.94
2022-07-31T20:46:35.784Z,97623.91
2022-07-31T20:48:37.088Z,97631.13
2022-07-31T20:50:38.447Z,97637.09
2022-07-31T20:52:39.758Z,97629.47
2022-07-31T20:54:41.078Z,97621.94
2022-07-31T20:56:42.575Z,97623.91
2022-07-31T20:58:46.199Z,97619.91
2022-07-31T21:00:50.931Z,97613.34
2022-07-31T21:02:52.310Z,97616.69
2022-07-31T21:04:53.612Z,97613.16
2022-07-31T21:06:54.982Z,97611.94
2022-07-31T21:08:56.283Z,97603.34
2022-07-31T21:10:57.649Z,97605.78
2022-07-31T21:13:02.434Z,97608.84
2022-07-31T21:15:03.751Z,97601.44
2022-07-31T21:17:06.086Z,97601.75
2022-07-31T21:19:07.404Z,97603.66
2022-07-31T21:21:11.740Z,97602.31
2022-07-31T21:23:14.455Z,97599.81
2022-07-31T21:25:16.132Z,97603.22
2022-07-31T21:27:17.468Z,97596.69
2022-07-31T21:29:18.776Z,97593.47
2022-07-31T21:31:20.089Z,97595.69
2022-07-31T21:33:21.407Z,97593.78
2022-07-31T21:35:36.437Z,97595.47
2022-07-31T21:37:40.193Z,97590.94
2022-07-31T21:39:41.712Z,97598.72
2022-07-31T21:41:43.049Z,97590.38
2022-07-31T21:43:58.648Z,97596.63
2022-07-31T21:46:01.996Z,97593.78
2022-07-31T21:48:03.480Z,97598.91
2022-07-31T21:50:06.843Z,97593.09
2022-07-31T21:52:08.277Z,97591.03
2022-07-31T21:54:11.715Z,97598.31
2022-07-31T21:56:16.038Z,97589.06
2022-07-31T21:58:17.381Z,97594.44
2022-07-31T22:00:18.747Z,97590.19
2022-07-31T22:02:27.575Z,97595.47
2022-07-31T22:04:29.155Z,97589.63
2022-07-31T22:06:55.031Z,97586.88
2022-07-31T22:08:56.341Z,97590.53
2022-07-31T22:10:57.712Z,97588.22
2022-07-31T22:12:59.006Z,97583.94
2022-07-31T22:15:00.344Z,97588.91
2022-07-31T22:17:01.654Z,97590.66
2022-07-31T22:19:03.206Z,97588.47
2022-07-31T22:21:04.605Z,97589.81
2022-07-31T22:23:05.915Z,97581.81
2022-07-31T22:25:07.215Z,97594.13
2022-07-31T22:27:27.199Z,97592.28
2022-07-31T22:29:28.490Z,97586.59
2022-07-31T22:31:29.848Z,97589.88
2022-07-31T22:33:31.159Z,97594.16
2022-07-31T22:35:32.493Z,97591.59
2022-07-31T22:37:33.848Z,97589.03
2022-07-31T22:39:35.156Z,97584.03
2022-07-31T22:41:36.463Z,97583.19
2022-07-31T22:44:10.316Z,97585.81
2022-07-31T22:45:59.056Z,97586.69
2022-07-31T22:48:00.405Z,97591.91
2022-07-31T22:50:01.729Z,97585.97
2022-07-31T22:52:03.279Z,97588.53
2022-07-31T22:54:04.867Z,97591.97
2022-07-31T22:56:06.175Z,97591.13
2022-07-31T22:58:11.259Z,97589.41
2022-07-31T23:00:12.671Z,97587.69
2022-07-31T23:02:13.996Z,97588.53
2022-07-31T23:04:15.343Z,97583.47
2022-07-31T23:06:32.078Z,97584.41
2022-07-31T23:08:33.843Z,97579.28
2022-07-31T23:10:35.203Z,97581.91
2022-07-31T23:12:36.519Z,97580.28
2022-07-31T23:14:37.833Z,97586.22
2022-07-31T23:16:39.149Z,97587.97
2022-07-31T23:18:40.467Z,97582.91
2022-07-31T23:20:41.831Z,97591.44
2022-07-31T23:22:43.167Z,97588.88
2022-07-31T23:24:44.474Z,97594.84
2022-07-31T23:26:45.779Z,97591.44
2022-07-31T23:28:47.157Z,97588.06
2022-07-31T23:30:48.474Z,97588.00
2022-07-31T23:32:49.815Z,97591.34
2022-07-31T23:34:51.136Z,97595.66
2022-07-31T23:36:52.444Z,97594.66
2022-07-31T23:38:53.794Z,97597.19
2022-07-31T23:40:56.401Z,97592.94
2022-07-31T23:42:57.710Z,97589.53
2022-07-31T23:44:59.075Z,97589.47
2022-07-31T23:47:00.407Z,97595.47
2022-07-31T23:49:04.206Z,97587.84
2022-07-31T23:51:05.626Z,97590.38
2022-07-31T23:53:06.933Z,97588.75
2022-07-31T23:55:08.249Z,97587.91
2022-07-31T23:57:09.576Z,97577.56
2022-07-31T23:59:10.908Z,97585.06
